Aeroporto :
LOGIN :

Iscrizione | Disclaimer

   EN    FR    IT 

 










Sommario :    VFR   VFR Marginale   IFR   IFR Intensivo   IFR Molto Intensivo
Visibilità : 
Base nubi : 
>= 8 km
>= 3000ft
5 / 8 km
1000 / 3000 ft
1500m / 5 km
500 / 1000 ft
800 / 1500m
200 / 500 ft
< 800m
< 200 ft
Simboli :   Temporali  Nebbia  Neve Forte  Precipitazioni Forti  Vento > 20 kt
SIGMETs :   Varie  Temporali  Ghiacco  Turbolenza  Onda orograficha  Ceneri Vulcaniche






- Altitudine del aeroporto : 15 ft
- Codice IATA : BHD


EGAC - George Best Belfast City

ULTIMO METAR :
  • 221220Z AUTO 07011KT 7000 -RA SCT014/// BKN019/// OVC032/// 08/06 Q0993

METARs OBSOLETI :
  • 221150Z AUTO 07011KT 8000 -RA BKN012/// BKN016/// OVC025/// 08/06 Q0993
  • 221120Z AUTO 07010KT 7000 -RA BKN012/// OVC025/// 08/06 Q0993
  • 221050Z AUTO 07009KT 9999 -RA BKN014/// OVC022/// 07/06 Q0993
  • 221020Z AUTO 07009KT 9000 -RA SCT013/// BKN019/// OVC027/// 07/06 Q0994
  • 220950Z AUTO 08009KT 8000 -RA SCT012/// BKN017/// OVC024/// 07/06 Q0994
  • 220920Z AUTO 07010KT 9999 -RA BKN012/// BKN017/// OVC031/// 07/06 Q0994 RERA REDZ

TAF TAF EGAC
Valido dal 22 a 12 ore il 22 a 21 ore UTC


221102Z 2212/2221 09012KT 9999 FEW012 BKN020
TEMPO 2212/2216 7000 SHRA RA BKN014CB
TEMPO 2216/2221 4000 +SHRA TSGS SCT008 BKN014CB
ATIS : +44 02890 935 124



MetMap, La meteo Aeronautica in un colpo d'occhio ! - Copyright ORBIFLY Dicembre 2007 - Disclaimer

ORBIFLY MET'MAP TEAM :

Programmazione e sviluppo : Alexandra Zaïnal
Concezione e sviluppo : Baudouin d'Aumeries
Co-Programmazione e sviluppo : Marc-Olivier Méhu
Supporto tecnico e logistico : Manuel Goepfert
Aiuto per la traduzione : Arnaldo La Scala

Contatto : metmap@orbifly.com




FONTI E CREDITI :

   NOAA